sensor_id;sensor_type;location;lat;lon;timestamp;pressure;altitude;pressure_sealevel;temperature;humidity
58973;BME280;44750;52.040;7.472;2023-02-19T00:02:09;101162.94;;;10.25;0.00
58973;BME280;44750;52.040;7.472;2023-02-19T00:07:09;101172.19;;;10.23;0.00
58973;BME280;44750;52.040;7.472;2023-02-19T00:12:10;101184.00;;;10.21;0.00
58973;BME280;44750;52.040;7.472;2023-02-19T00:17:10;101199.94;;;10.25;0.00
58973;BME280;44750;52.040;7.472;2023-02-19T00:22:10;101215.91;;;10.28;0.00
58973;BME280;44750;52.040;7.472;2023-02-19T00:27:10;101224.03;;;10.28;0.00
58973;BME280;44750;52.040;7.472;2023-02-19T00:32:10;101225.16;;;10.25;0.00
58973;BME280;44750;52.040;7.472;2023-02-19T00:37:11;101249.50;;;10.25;0.00
58973;BME280;44750;52.040;7.472;2023-02-19T00:42:11;101264.63;;;10.28;0.00
58973;BME280;44750;52.040;7.472;2023-02-19T00:47:11;101286.69;;;10.33;0.00
58973;BME280;44750;52.040;7.472;2023-02-19T00:52:11;101286.81;;;10.31;0.00
58973;BME280;44750;52.040;7.472;2023-02-19T00:57:11;101305.78;;;10.31;0.00
58973;BME280;44750;52.040;7.472;2023-02-19T01:02:12;101298.91;;;10.27;0.00
58973;BME280;44750;52.040;7.472;2023-02-19T01:07:12;101301.06;;;10.24;0.00
58973;BME280;44750;52.040;7.472;2023-02-19T01:12:12;101319.44;;;10.30;0.00
58973;BME280;44750;52.040;7.472;2023-02-19T01:17:12;101305.91;;;10.30;0.00
58973;BME280;44750;52.040;7.472;2023-02-19T01:22:13;101310.63;;;10.28;0.00
58973;BME280;44750;52.040;7.472;2023-02-19T01:27:13;101315.75;;;10.31;0.00
58973;BME280;44750;52.040;7.472;2023-02-19T01:32:13;101312.44;;;10.27;0.00
58973;BME280;44750;52.040;7.472;2023-02-19T01:37:13;101324.84;;;10.30;0.00
58973;BME280;44750;52.040;7.472;2023-02-19T01:42:15;101323.72;;;10.32;0.00
58973;BME280;44750;52.040;7.472;2023-02-19T01:47:17;101319.16;;;10.33;0.00
58973;BME280;44750;52.040;7.472;2023-02-19T01:52:31;101327.91;;;10.36;0.00
58973;BME280;44750;52.040;7.472;2023-02-19T01:57:36;101327.41;;;10.31;0.00
58973;BME280;44750;52.040;7.472;2023-02-19T02:02:40;101320.31;;;10.30;0.00
58973;BME280;44750;52.040;7.472;2023-02-19T02:07:41;101296.63;;;10.23;0.00
58973;BME280;44750;52.040;7.472;2023-02-19T02:12:41;101304.91;;;10.21;0.00
58973;BME280;44750;52.040;7.472;2023-02-19T02:18:30;101301.63;;;10.27;0.00
58973;BME280;44750;52.040;7.472;2023-02-19T02:23:39;101295.66;;;10.24;0.00
58973;BME280;44750;52.040;7.472;2023-02-19T02:34:33;101282.38;;;10.20;0.00
58973;BME280;44750;52.040;7.472;2023-02-19T02:39:27;101282.66;;;10.17;0.00
58973;BME280;44750;52.040;7.472;2023-02-19T02:44:38;101289.06;;;10.16;0.00
58973;BME280;44750;52.040;7.472;2023-02-19T02:49:39;101285.34;;;10.08;0.00
58973;BME280;44750;52.040;7.472;2023-02-19T02:54:39;101304.00;;;10.11;0.00
58973;BME280;44750;52.040;7.472;2023-02-19T02:59:41;101296.41;;;10.04;0.00
58973;BME280;44750;52.040;7.472;2023-02-19T03:05:16;101312.25;;;10.09;0.00
58973;BME280;44750;52.040;7.472;2023-02-19T03:10:23;101313.91;;;10.00;0.00
58973;BME280;44750;52.040;7.472;2023-02-19T03:15:32;101307.47;;;9.92;0.00
58973;BME280;44750;52.040;7.472;2023-02-19T03:20:38;101308.97;;;9.84;0.00
58973;BME280;44750;52.040;7.472;2023-02-19T03:25:39;101335.34;;;9.92;0.00
58973;BME280;44750;52.040;7.472;2023-02-19T03:30:49;101343.66;;;10.00;0.00
58973;BME280;44750;52.040;7.472;2023-02-19T03:35:55;101341.22;;;9.97;0.00
58973;BME280;44750;52.040;7.472;2023-02-19T03:46:14;101344.31;;;9.93;0.00
58973;BME280;44750;52.040;7.472;2023-02-19T03:51:28;101344.88;;;9.86;0.00
58973;BME280;44750;52.040;7.472;2023-02-19T03:56:44;101345.44;;;9.90;0.00
58973;BME280;44750;52.040;7.472;2023-02-19T04:01:53;101334.56;;;9.80;0.00
58973;BME280;44750;52.040;7.472;2023-02-19T04:06:56;101352.53;;;9.81;0.00
58973;BME280;44750;52.040;7.472;2023-02-19T04:11:58;101340.63;;;9.73;0.00
58973;BME280;44750;52.040;7.472;2023-02-19T04:17:02;101351.44;;;9.73;0.00
58973;BME280;44750;52.040;7.472;2023-02-19T04:22:05;101351.59;;;9.71;0.00
58973;BME280;44750;52.040;7.472;2023-02-19T04:27:07;101366.56;;;9.75;0.00
58973;BME280;44750;52.040;7.472;2023-02-19T04:32:09;101367.66;;;9.73;0.00
58973;BME280;44750;52.040;7.472;2023-02-19T04:37:10;101358.38;;;9.65;0.00
58973;BME280;44750;52.040;7.472;2023-02-19T04:42:10;101382.06;;;9.73;0.00
58973;BME280;44750;52.040;7.472;2023-02-19T04:47:10;101377.63;;;9.72;0.00
58973;BME280;44750;52.040;7.472;2023-02-19T04:52:11;101369.81;;;9.69;0.00
58973;BME280;44750;52.040;7.472;2023-02-19T04:57:11;101363.19;;;9.62;0.00
58973;BME280;44750;52.040;7.472;2023-02-19T05:02:11;101345.78;;;9.54;0.00
58973;BME280;44750;52.040;7.472;2023-02-19T05:07:12;101368.44;;;9.63;0.00
58973;BME280;44750;52.040;7.472;2023-02-19T05:12:12;101386.88;;;9.69;0.00
58973;BME280;44750;52.040;7.472;2023-02-19T05:17:12;101368.44;;;9.63;0.00
58973;BME280;44750;52.040;7.472;2023-02-19T05:22:12;101367.34;;;9.66;0.00
58973;BME280;44750;52.040;7.472;2023-02-19T05:27:12;101374.06;;;9.71;0.00
58973;BME280;44750;52.040;7.472;2023-02-19T05:32:13;101354.09;;;9.63;0.00
58973;BME280;44750;52.040;7.472;2023-02-19T05:37:13;101336.66;;;9.56;0.00
58973;BME280;44750;52.040;7.472;2023-02-19T05:42:13;101343.56;;;9.60;0.00
58973;BME280;44750;52.040;7.472;2023-02-19T05:47:14;101319.28;;;9.48;0.00
58973;BME280;44750;52.040;7.472;2023-02-19T05:52:14;101322.97;;;9.47;0.00
58973;BME280;44750;52.040;7.472;2023-02-19T05:57:14;101349.19;;;9.57;0.00
58973;BME280;44750;52.040;7.472;2023-02-19T06:02:14;101342.06;;;9.56;0.00
58973;BME280;44750;52.040;7.472;2023-02-19T06:07:15;101350.19;;;9.56;0.00
58973;BME280;44750;52.040;7.472;2023-02-19T06:12:15;101347.03;;;9.50;0.00
58973;BME280;44750;52.040;7.472;2023-02-19T06:17:15;101355.53;;;9.46;0.00
58973;BME280;44750;52.040;7.472;2023-02-19T06:22:16;101328.59;;;9.23;0.00
58973;BME280;44750;52.040;7.472;2023-02-19T06:27:16;101356.94;;;9.29;0.00
58973;BME280;44750;52.040;7.472;2023-02-19T06:32:16;101359.09;;;9.14;0.00
58973;BME280;44750;52.040;7.472;2023-02-19T06:37:16;101391.72;;;9.22;0.00
58973;BME280;44750;52.040;7.472;2023-02-19T06:42:17;101407.81;;;9.24;0.00
58973;BME280;44750;52.040;7.472;2023-02-19T06:47:17;101410.41;;;9.14;0.00
58973;BME280;44750;52.040;7.472;2023-02-19T06:52:17;101423.28;;;9.10;0.00
58973;BME280;44750;52.040;7.472;2023-02-19T06:57:17;101432.91;;;9.14;0.00
58973;BME280;44750;52.040;7.472;2023-02-19T07:02:17;101471.91;;;9.22;0.00
58973;BME280;44750;52.040;7.472;2023-02-19T07:07:18;101455.59;;;9.12;0.00
58973;BME280;44750;52.040;7.472;2023-02-19T07:12:18;101478.56;;;9.17;0.00
58973;BME280;44750;52.040;7.472;2023-02-19T07:17:18;101459.66;;;9.06;0.00
58973;BME280;44750;52.040;7.472;2023-02-19T07:22:18;101480.50;;;9.15;0.00
58973;BME280;44750;52.040;7.472;2023-02-19T07:27:19;101500.16;;;9.17;0.00
58973;BME280;44750;52.040;7.472;2023-02-19T07:32:19;101501.63;;;9.10;0.00
58973;BME280;44750;52.040;7.472;2023-02-19T07:37:19;101530.00;;;9.16;0.00
58973;BME280;44750;52.040;7.472;2023-02-19T07:42:19;101523.50;;;9.07;0.00
58973;BME280;44750;52.040;7.472;2023-02-19T07:47:19;101529.16;;;9.04;0.00
58973;BME280;44750;52.040;7.472;2023-02-19T07:52:20;101492.78;;;8.51;0.00
58973;BME280;44750;52.040;7.472;2023-02-19T07:57:20;101480.88;;;8.07;0.00
58973;BME280;44750;52.040;7.472;2023-02-19T08:02:20;101461.19;;;7.58;0.00
58973;BME280;44750;52.040;7.472;2023-02-19T08:07:20;101475.16;;;7.28;0.00
58973;BME280;44750;52.040;7.472;2023-02-19T08:12:21;101495.84;;;7.14;0.00
58973;BME280;44750;52.040;7.472;2023-02-19T08:17:21;101485.97;;;7.02;0.00
58973;BME280;44750;52.040;7.472;2023-02-19T08:22:21;101485.78;;;6.92;0.00
58973;BME280;44750;52.040;7.472;2023-02-19T08:27:21;101502.59;;;6.83;0.00
58973;BME280;44750;52.040;7.472;2023-02-19T08:32:21;101546.56;;;7.08;0.00
58973;BME280;44750;52.040;7.472;2023-02-19T08:37:22;101547.88;;;7.02;0.00
58973;BME280;44750;52.040;7.472;2023-02-19T08:42:22;101548.94;;;6.99;0.00
58973;BME280;44750;52.040;7.472;2023-02-19T08:47:23;101566.19;;;6.97;0.00
58973;BME280;44750;52.040;7.472;2023-02-19T08:52:23;101582.13;;;7.00;0.00
58973;BME280;44750;52.040;7.472;2023-02-19T08:57:23;101582.78;;;6.91;0.00
58973;BME280;44750;52.040;7.472;2023-02-19T09:02:24;101613.25;;;7.04;0.00
58973;BME280;44750;52.040;7.472;2023-02-19T09:07:24;101629.06;;;7.09;0.00
58973;BME280;44750;52.040;7.472;2023-02-19T09:12:24;101641.69;;;7.08;0.00
58973;BME280;44750;52.040;7.472;2023-02-19T09:17:25;101639.94;;;7.07;0.00
58973;BME280;44750;52.040;7.472;2023-02-19T09:22:25;101668.81;;;7.18;0.00
58973;BME280;44750;52.040;7.472;2023-02-19T09:27:25;101652.13;;;7.00;0.00
58973;BME280;44750;52.040;7.472;2023-02-19T09:32:29;101655.00;;;6.97;0.00
58973;BME280;44750;52.040;7.472;2023-02-19T09:37:29;101613.41;;;6.62;0.00
58973;BME280;44750;52.040;7.472;2023-02-19T09:42:30;101608.03;;;6.49;0.00
58973;BME280;44750;52.040;7.472;2023-02-19T09:47:33;101656.69;;;6.59;0.00
58973;BME280;44750;52.040;7.472;2023-02-19T09:52:41;101678.69;;;6.79;0.00
58973;BME280;44750;52.040;7.472;2023-02-19T09:57:44;101735.16;;;7.06;0.00
58973;BME280;44750;52.040;7.472;2023-02-19T10:02:45;101736.03;;;7.07;0.00
58973;BME280;44750;52.040;7.472;2023-02-19T10:07:48;101707.00;;;6.84;0.00
58973;BME280;44750;52.040;7.472;2023-02-19T10:12:53;101698.03;;;6.71;0.00
58973;BME280;44750;52.040;7.472;2023-02-19T10:17:54;101750.66;;;7.15;0.00
58973;BME280;44750;52.040;7.472;2023-02-19T10:23:01;101736.25;;;7.16;0.00
58973;BME280;44750;52.040;7.472;2023-02-19T10:28:03;101724.69;;;7.14;0.00
58973;BME280;44750;52.040;7.472;2023-02-19T10:33:12;101737.13;;;7.30;0.00
58973;BME280;44750;52.040;7.472;2023-02-19T10:38:15;101740.59;;;7.32;0.00
58973;BME280;44750;52.040;7.472;2023-02-19T10:43:21;101677.63;;;6.81;0.00
58973;BME280;44750;52.040;7.472;2023-02-19T10:48:28;101735.06;;;7.20;0.00
58973;BME280;44750;52.040;7.472;2023-02-19T10:53:42;101692.31;;;7.16;0.00
58973;BME280;44750;52.040;7.472;2023-02-19T10:58:43;101713.19;;;7.38;0.00
58973;BME280;44750;52.040;7.472;2023-02-19T11:03:45;101688.66;;;7.43;0.00
58973;BME280;44750;52.040;7.472;2023-02-19T11:08:49;101644.03;;;7.26;0.00
58973;BME280;44750;52.040;7.472;2023-02-19T11:13:50;101620.88;;;7.36;0.00
58973;BME280;44750;52.040;7.472;2023-02-19T11:18:55;101656.69;;;7.75;0.00
58973;BME280;44750;52.040;7.472;2023-02-19T11:23:55;101597.38;;;7.75;0.00
58973;BME280;44750;52.040;7.472;2023-02-19T11:28:57;101548.47;;;7.68;0.00
58973;BME280;44750;52.040;7.472;2023-02-19T11:33:59;101543.06;;;7.93;0.00
58973;BME280;44750;52.040;7.472;2023-02-19T11:55:31;101342.28;;;8.32;1.85
58973;BME280;44750;52.040;7.472;2023-02-19T12:00:43;101300.22;;;8.41;7.73
58973;BME280;44750;52.040;7.472;2023-02-19T12:06:12;101265.28;;;8.51;12.04
58973;BME280;44750;52.040;7.472;2023-02-19T12:22:02;101142.75;;;8.53;26.97
58973;BME280;44750;52.040;7.472;2023-02-19T12:32:52;101085.22;;;8.53;33.23
58973;BME280;44750;52.040;7.472;2023-02-19T12:38:20;101082.44;;;8.85;35.54
58973;BME280;44750;52.040;7.472;2023-02-19T12:43:22;101066.97;;;8.87;40.85
58973;BME280;44750;52.040;7.472;2023-02-19T12:53:47;100959.16;;;8.65;52.22
58973;BME280;44750;52.040;7.472;2023-02-19T12:58:55;100982.34;;;8.98;55.19
58973;BME280;44750;52.040;7.472;2023-02-19T13:04:12;100916.81;;;8.86;63.19
58973;BME280;44750;52.040;7.472;2023-02-19T13:14:36;100926.03;;;8.94;71.50
58973;BME280;44750;52.040;7.472;2023-02-19T13:19:38;100910.56;;;8.96;74.22
58973;BME280;44750;52.040;7.472;2023-02-19T13:24:40;100942.19;;;9.25;75.98
58973;BME280;44750;52.040;7.472;2023-02-19T13:40:41;100868.16;;;9.37;85.92
58973;BME280;44750;52.040;7.472;2023-02-19T13:45:45;100875.50;;;9.45;88.06
58973;BME280;44750;52.040;7.472;2023-02-19T13:50:45;100860.44;;;9.42;91.10
58973;BME280;44750;52.040;7.472;2023-02-19T13:55:49;100871.84;;;9.36;94.16
58973;BME280;44750;52.040;7.472;2023-02-19T14:00:50;100858.59;;;9.33;95.32
58973;BME280;44750;52.040;7.472;2023-02-19T14:10:58;100859.91;;;9.39;100.00
58973;BME280;44750;52.040;7.472;2023-02-19T14:15:58;100867.41;;;9.35;100.00
58973;BME280;44750;52.040;7.472;2023-02-19T14:21:25;100886.31;;;9.45;100.00
58973;BME280;44750;52.040;7.472;2023-02-19T14:26:33;100888.91;;;9.46;100.00
58973;BME280;44750;52.040;7.472;2023-02-19T14:31:37;100871.25;;;9.32;100.00
58973;BME280;44750;52.040;7.472;2023-02-19T14:36:54;100861.00;;;9.26;100.00
58973;BME280;44750;52.040;7.472;2023-02-19T14:47:27;100848.50;;;9.45;100.00
58973;BME280;44750;52.040;7.472;2023-02-19T14:52:36;100853.91;;;9.45;100.00
58973;BME280;44750;52.040;7.472;2023-02-19T14:57:40;100847.94;;;9.41;100.00
58973;BME280;44750;52.040;7.472;2023-02-19T15:02:42;100822.63;;;9.23;100.00
58973;BME280;44750;52.040;7.472;2023-02-19T15:07:42;100812.38;;;9.16;100.00
58973;BME280;44750;52.040;7.472;2023-02-19T15:13:09;100804.44;;;9.25;100.00
58973;BME280;44750;52.040;7.472;2023-02-19T15:18:19;100804.28;;;9.16;100.00
58973;BME280;44750;52.040;7.472;2023-02-19T15:23:22;100812.25;;;9.37;100.00
58973;BME280;44750;52.040;7.472;2023-02-19T15:33:25;100847.09;;;9.31;100.00
58973;BME280;44750;52.040;7.472;2023-02-19T15:38:26;100867.41;;;9.35;100.00
58973;BME280;44750;52.040;7.472;2023-02-19T15:43:50;100883.19;;;9.40;100.00
58973;BME280;44750;52.040;7.472;2023-02-19T15:48:57;100874.25;;;9.39;100.00
58973;BME280;44750;52.040;7.472;2023-02-19T15:54:06;100870.13;;;9.25;100.00
58973;BME280;44750;52.040;7.472;2023-02-19T16:04:16;100911.78;;;9.23;100.00
58973;BME280;44750;52.040;7.472;2023-02-19T16:09:23;100892.22;;;8.90;100.00
58973;BME280;44750;52.040;7.472;2023-02-19T16:14:34;100926.97;;;8.73;100.00
58973;BME280;44750;52.040;7.472;2023-02-19T16:19:52;100947.47;;;8.85;100.00
58973;BME280;44750;52.040;7.472;2023-02-19T16:25:03;100974.50;;;8.95;97.79
58973;BME280;44750;52.040;7.472;2023-02-19T16:35:35;101019.94;;;8.90;94.04
58973;BME280;44750;52.040;7.472;2023-02-19T16:45:47;101044.19;;;8.80;88.35
58973;BME280;44750;52.040;7.472;2023-02-19T16:50:48;101073.16;;;8.78;85.74
58973;BME280;44750;52.040;7.472;2023-02-19T16:55:49;101108.25;;;8.78;82.49
58973;BME280;44750;52.040;7.472;2023-02-19T17:00:49;101110.50;;;8.73;79.58
58973;BME280;44750;52.040;7.472;2023-02-19T17:05:51;101131.97;;;8.75;76.49
58973;BME280;44750;52.040;7.472;2023-02-19T17:10:51;101145.91;;;8.59;73.76
58973;BME280;44750;52.040;7.472;2023-02-19T17:15:51;101169.44;;;8.57;70.81
58973;BME280;44750;52.040;7.472;2023-02-19T17:21:14;101181.00;;;8.47;66.22
58973;BME280;44750;52.040;7.472;2023-02-19T17:26:26;101188.03;;;8.39;62.10
58973;BME280;44750;52.040;7.472;2023-02-19T17:31:36;101222.34;;;8.36;58.40
58973;BME280;44750;52.040;7.472;2023-02-19T17:36:36;101242.81;;;8.39;54.17
58973;BME280;44750;52.040;7.472;2023-02-19T17:41:37;101246.63;;;8.36;50.95
58973;BME280;44750;52.040;7.472;2023-02-19T17:46:37;101252.91;;;8.37;48.81
58973;BME280;44750;52.040;7.472;2023-02-19T17:51:38;101272.50;;;8.39;46.57
58973;BME280;44750;52.040;7.472;2023-02-19T17:56:38;101261.13;;;8.24;45.60
58973;BME280;44750;52.040;7.472;2023-02-19T18:01:38;101277.28;;;8.13;44.09
58973;BME280;44750;52.040;7.472;2023-02-19T18:06:38;101317.25;;;8.19;41.83
58973;BME280;44750;52.040;7.472;2023-02-19T18:11:43;101324.50;;;8.18;40.10
58973;BME280;44750;52.040;7.472;2023-02-19T18:16:44;101332.44;;;8.09;39.05
58973;BME280;44750;52.040;7.472;2023-02-19T18:21:44;101354.91;;;8.09;36.44
58973;BME280;44750;52.040;7.472;2023-02-19T18:26:44;101347.03;;;8.06;34.94
58973;BME280;44750;52.040;7.472;2023-02-19T18:31:45;101362.72;;;8.01;32.70
58973;BME280;44750;52.040;7.472;2023-02-19T18:36:46;101388.84;;;8.12;30.82
58973;BME280;44750;52.040;7.472;2023-02-19T18:41:48;101389.69;;;8.12;29.00
58973;BME280;44750;52.040;7.472;2023-02-19T18:46:49;101400.38;;;8.02;28.28
58973;BME280;44750;52.040;7.472;2023-02-19T18:51:49;101411.50;;;7.98;27.37
58973;BME280;44750;52.040;7.472;2023-02-19T18:56:49;101390.75;;;7.87;26.70
58973;BME280;44750;52.040;7.472;2023-02-19T19:01:50;101412.94;;;7.91;27.13
58973;BME280;44750;52.040;7.472;2023-02-19T19:06:50;101423.47;;;7.82;26.97
58973;BME280;44750;52.040;7.472;2023-02-19T19:11:50;101412.41;;;7.74;26.61
58973;BME280;44750;52.040;7.472;2023-02-19T19:16:50;101424.75;;;7.65;27.24
58973;BME280;44750;52.040;7.472;2023-02-19T19:21:52;101401.72;;;7.61;27.82
58973;BME280;44750;52.040;7.472;2023-02-19T19:26:53;101387.94;;;7.53;30.93
58973;BME280;44750;52.040;7.472;2023-02-19T19:31:53;101371.44;;;7.58;34.91
58973;BME280;44750;52.040;7.472;2023-02-19T19:36:53;101359.97;;;7.67;38.25
58973;BME280;44750;52.040;7.472;2023-02-19T19:41:54;101348.44;;;7.65;41.53
58973;BME280;44750;52.040;7.472;2023-02-19T19:46:55;101344.63;;;7.67;43.07
58973;BME280;44750;52.040;7.472;2023-02-19T19:51:55;101333.25;;;7.64;44.30
58973;BME280;44750;52.040;7.472;2023-02-19T19:56:55;101328.59;;;7.55;44.10
58973;BME280;44750;52.040;7.472;2023-02-19T20:01:56;101365.59;;;7.64;42.41
58973;BME280;44750;52.040;7.472;2023-02-19T20:06:57;101375.16;;;7.68;41.59
58973;BME280;44750;52.040;7.472;2023-02-19T20:11:57;101377.72;;;7.69;40.81
58973;BME280;44750;52.040;7.472;2023-02-19T20:16:58;101377.84;;;7.68;41.03
58973;BME280;44750;52.040;7.472;2023-02-19T20:21:58;101373.03;;;7.60;41.20
58973;BME280;44750;52.040;7.472;2023-02-19T20:27:00;101376.44;;;7.51;40.57
58973;BME280;44750;52.040;7.472;2023-02-19T20:32:00;101384.66;;;7.61;39.58
58973;BME280;44750;52.040;7.472;2023-02-19T20:37:00;101396.31;;;7.61;40.11
58973;BME280;44750;52.040;7.472;2023-02-19T20:42:01;101400.00;;;7.72;37.85
58973;BME280;44750;52.040;7.472;2023-02-19T20:47:01;101359.63;;;7.47;38.06
58973;BME280;44750;52.040;7.472;2023-02-19T20:52:05;101378.88;;;7.54;37.01
58973;BME280;44750;52.040;7.472;2023-02-19T20:57:05;101383.56;;;7.52;35.25
58973;BME280;44750;52.040;7.472;2023-02-19T21:02:10;101373.00;;;7.49;35.29
58973;BME280;44750;52.040;7.472;2023-02-19T21:07:12;101385.34;;;7.40;35.03
58973;BME280;44750;52.040;7.472;2023-02-19T21:12:13;101385.06;;;7.32;35.31
58973;BME280;44750;52.040;7.472;2023-02-19T21:17:13;101422.69;;;7.45;35.51
58973;BME280;44750;52.040;7.472;2023-02-19T21:22:14;101405.97;;;7.28;36.40
58973;BME280;44750;52.040;7.472;2023-02-19T21:27:14;101408.94;;;7.36;35.58
58973;BME280;44750;52.040;7.472;2023-02-19T21:32:14;101384.94;;;7.33;36.91
58973;BME280;44750;52.040;7.472;2023-02-19T21:37:14;101375.97;;;7.33;37.86
58973;BME280;44750;52.040;7.472;2023-02-19T21:42:15;101351.31;;;7.15;39.63
58973;BME280;44750;52.040;7.472;2023-02-19T21:47:15;101364.22;;;7.23;40.75
58973;BME280;44750;52.040;7.472;2023-02-19T21:52:15;101329.25;;;7.10;42.86
58973;BME280;44750;52.040;7.472;2023-02-19T21:57:15;101324.41;;;7.15;43.81
58973;BME280;44750;52.040;7.472;2023-02-19T22:02:16;101313.88;;;7.12;44.99
58973;BME280;44750;52.040;7.472;2023-02-19T22:07:16;101285.28;;;6.98;45.95
58973;BME280;44750;52.040;7.472;2023-02-19T22:12:18;101291.19;;;7.03;45.90
58973;BME280;44750;52.040;7.472;2023-02-19T22:17:19;101278.13;;;6.85;46.41
58973;BME280;44750;52.040;7.472;2023-02-19T22:22:19;101296.50;;;6.92;46.05
58973;BME280;44750;52.040;7.472;2023-02-19T22:27:19;101307.91;;;6.95;45.72
58973;BME280;44750;52.040;7.472;2023-02-19T22:32:19;101301.47;;;6.85;46.75
58973;BME280;44750;52.040;7.472;2023-02-19T22:37:19;101293.59;;;6.71;46.09
58973;BME280;44750;52.040;7.472;2023-02-19T22:42:20;101309.53;;;6.61;46.06
58973;BME280;44750;52.040;7.472;2023-02-19T22:47:20;101298.31;;;6.43;45.56
58973;BME280;44750;52.040;7.472;2023-02-19T22:52:20;101325.81;;;6.46;43.36
58973;BME280;44750;52.040;7.472;2023-02-19T22:57:20;101353.03;;;6.55;41.81
58973;BME280;44750;52.040;7.472;2023-02-19T23:02:21;101369.81;;;6.58;41.09
58973;BME280;44750;52.040;7.472;2023-02-19T23:07:21;101340.16;;;6.47;41.84
58973;BME280;44750;52.040;7.472;2023-02-19T23:12:21;101361.00;;;6.43;40.87
58973;BME280;44750;52.040;7.472;2023-02-19T23:17:21;101363.41;;;6.35;40.35
58973;BME280;44750;52.040;7.472;2023-02-19T23:22:22;101371.47;;;6.35;40.21
58973;BME280;44750;52.040;7.472;2023-02-19T23:27:22;101367.41;;;6.29;38.87
58973;BME280;44750;52.040;7.472;2023-02-19T23:32:22;101378.47;;;6.25;37.89
58973;BME280;44750;52.040;7.472;2023-02-19T23:37:22;101357.81;;;6.12;36.67
58973;BME280;44750;52.040;7.472;2023-02-19T23:42:23;101384.78;;;6.24;35.41
58973;BME280;44750;52.040;7.472;2023-02-19T23:47:23;101344.06;;;6.04;34.00
58973;BME280;44750;52.040;7.472;2023-02-19T23:52:23;101346.88;;;6.02;33.25
58973;BME280;44750;52.040;7.472;2023-02-19T23:57:23;101371.47;;;6.22;31.61
